Time,TemperatureF,DewpointF,PressureIn,WindDirection,WindDirectionDegrees,WindSpeedMPH,WindSpeedGustMPH,Humidity,HourlyPrecipIn,Conditions,Clouds,dailyrainin,SoftwareType,DateUTC
2013-01-21 00:03:00,33.1,27.3,30.27,NW,305,0.0,0.0,79,0.00,,,0.00,VWS V14.01,2013-01-21 08:03:00,
2013-01-21 00:08:00,32.9,26.8,30.27,NW,305,0.0,0.0,78,0.00,,,0.00,VWS V14.01,2013-01-21 08:08:00,
2013-01-21 00:13:00,32.7,27.2,30.27,NW,305,0.0,0.0,80,0.00,,,0.00,VWS V14.01,2013-01-21 08:13:00,
2013-01-21 00:18:00,32.6,27.1,30.26,NW,305,0.0,0.0,80,0.00,,,0.00,VWS V14.01,2013-01-21 08:18:00,
2013-01-21 00:23:00,32.5,26.7,30.26,NW,305,0.0,0.0,79,0.00,,,0.00,VWS V14.01,2013-01-21 08:23:00,
2013-01-21 00:28:00,32.4,26.9,30.26,NW,305,0.0,0.0,80,0.00,,,0.00,VWS V14.01,2013-01-21 08:28:00,
2013-01-21 00:33:00,32.3,26.8,30.26,NW,305,0.0,0.0,80,0.00,,,0.00,VWS V14.01,2013-01-21 08:33:00,
2013-01-21 00:38:00,32.2,27.0,30.26,NW,305,0.0,0.0,81,0.00,,,0.00,VWS V14.01,2013-01-21 08:38:00,
2013-01-21 00:43:00,32.1,26.9,30.26,NW,305,0.0,0.0,81,0.00,,,0.00,VWS V14.01,2013-01-21 08:43:00,
2013-01-21 00:48:00,32.1,26.9,30.26,NW,305,0.0,0.0,81,0.00,,,0.00,VWS V14.01,2013-01-21 08:48:00,
2013-01-21 00:53:00,32.1,26.9,30.26,NW,305,0.0,0.0,81,0.00,,,0.00,VWS V14.01,2013-01-21 08:53:00,
2013-01-21 00:58:00,32.0,26.5,30.26,NW,305,0.0,0.0,80,0.00,,,0.00,VWS V14.01,2013-01-21 08:58:00,
2013-01-21 01:03:00,31.9,26.4,30.26,NW,305,0.0,0.0,80,0.00,,,0.00,VWS V14.01,2013-01-21 09:03:00,
2013-01-21 01:08:00,32.0,26.5,30.26,NW,305,0.0,0.0,80,0.00,,,0.00,VWS V14.01,2013-01-21 09:08:00,
2013-01-21 01:13:00,31.9,26.4,30.25,NW,305,0.0,0.0,80,0.00,,,0.00,VWS V14.01,2013-01-21 09:13:00,
2013-01-21 01:18:00,31.7,26.2,30.25,NW,305,0.0,0.0,80,0.00,,,0.00,VWS V14.01,2013-01-21 09:18:00,
2013-01-21 01:23:00,31.4,26.0,30.25,NW,305,0.0,0.0,80,0.00,,,0.00,VWS V14.01,2013-01-21 09:23:00,
2013-01-21 01:28:00,31.3,25.9,30.25,NW,305,0.0,0.0,80,0.00,,,0.00,VWS V14.01,2013-01-21 09:28:00,
2013-01-21 01:33:00,31.2,25.5,30.25,NW,305,0.0,0.0,79,0.00,,,0.00,VWS V14.01,2013-01-21 09:33:00,
2013-01-21 01:38:00,30.9,25.5,30.26,NW,305,0.0,0.0,80,0.00,,,0.00,VWS V14.01,2013-01-21 09:38:00,
2013-01-21 01:43:00,30.7,25.3,30.26,NW,305,0.0,0.0,80,0.00,,,0.00,VWS V14.01,2013-01-21 09:43:00,
2013-01-21 01:48:00,30.4,25.3,30.26,NW,305,0.0,0.0,81,0.00,,,0.00,VWS V14.01,2013-01-21 09:48:00,
2013-01-21 01:53:00,30.2,25.7,30.26,NW,305,0.0,0.0,83,0.00,,,0.00,VWS V14.01,2013-01-21 09:53:00,
2013-01-21 01:58:00,30.2,26.0,30.25,NW,305,0.0,0.0,84,0.00,,,0.00,VWS V14.01,2013-01-21 09:58:00,
2013-01-21 02:03:00,30.2,25.7,30.26,NW,305,0.0,0.0,83,0.00,,,0.00,VWS V14.01,2013-01-21 10:03:00,
2013-01-21 02:08:00,30.2,25.4,30.26,NW,305,0.0,0.0,82,0.00,,,0.00,VWS V14.01,2013-01-21 10:08:00,
2013-01-21 02:13:00,30.3,25.8,30.25,NW,305,0.0,0.0,83,0.00,,,0.00,VWS V14.01,2013-01-21 10:13:00,
2013-01-21 02:18:00,30.2,25.7,30.26,NW,305,0.0,0.0,83,0.00,,,0.00,VWS V14.01,2013-01-21 10:18:00,
2013-01-21 02:23:00,30.1,25.3,30.26,NW,305,0.0,0.0,82,0.00,,,0.00,VWS V14.01,2013-01-21 10:23:00,
2013-01-21 02:28:00,29.9,25.4,30.26,NW,305,0.0,0.0,83,0.00,,,0.00,VWS V14.01,2013-01-21 10:28:00,
2013-01-21 02:33:00,29.8,25.3,30.25,NW,305,0.0,0.0,83,0.00,,,0.00,VWS V14.01,2013-01-21 10:33:00,
2013-01-21 02:38:00,29.7,25.2,30.25,NW,305,0.0,0.0,83,0.00,,,0.00,VWS V14.01,2013-01-21 10:38:00,
2013-01-21 02:43:00,29.7,25.2,30.25,NW,305,0.0,0.0,83,0.00,,,0.00,VWS V14.01,2013-01-21 10:43:00,
2013-01-21 02:48:00,29.5,25.0,30.25,NW,305,0.0,0.0,83,0.00,,,0.00,VWS V14.01,2013-01-21 10:48:00,
2013-01-21 02:53:00,29.5,25.0,30.25,NW,305,0.0,0.0,83,0.00,,,0.00,VWS V14.01,2013-01-21 10:53:00,
2013-01-21 02:58:00,29.3,24.8,30.25,NW,305,0.0,0.0,83,0.00,,,0.00,VWS V14.01,2013-01-21 10:58:00,
2013-01-21 03:03:00,29.3,24.8,30.25,NW,305,0.0,0.0,83,0.00,,,0.00,VWS V14.01,2013-01-21 11:03:00,
2013-01-21 03:08:00,29.1,24.6,30.25,NW,305,0.0,0.0,83,0.00,,,0.00,VWS V14.01,2013-01-21 11:08:00,
2013-01-21 03:13:00,28.9,24.4,30.26,NW,305,0.0,0.0,83,0.00,,,0.00,VWS V14.01,2013-01-21 11:13:00,
2013-01-21 03:18:00,28.7,24.2,30.25,NW,305,0.0,0.0,83,0.00,,,0.00,VWS V14.01,2013-01-21 11:18:00,
2013-01-21 03:23:00,28.4,24.2,30.25,NW,305,0.0,0.0,84,0.00,,,0.00,VWS V14.01,2013-01-21 11:23:00,
2013-01-21 03:28:00,28.2,24.3,30.25,NW,305,0.0,0.0,85,0.00,,,0.00,VWS V14.01,2013-01-21 11:28:00,
2013-01-21 03:33:00,28.1,24.2,30.25,NW,305,0.0,0.0,85,0.00,,,0.00,VWS V14.01,2013-01-21 11:33:00,
2013-01-21 03:38:00,27.8,23.9,30.25,NW,305,0.0,0.0,85,0.00,,,0.00,VWS V14.01,2013-01-21 11:38:00,
2013-01-21 03:43:00,27.5,23.6,30.25,NW,305,0.0,0.0,85,0.00,,,0.00,VWS V14.01,2013-01-21 11:43:00,
2013-01-21 03:48:00,27.5,24.1,30.25,NW,305,0.0,0.0,87,0.00,,,0.00,VWS V14.01,2013-01-21 11:48:00,
2013-01-21 03:53:00,27.9,24.5,30.25,NW,305,0.0,0.0,87,0.00,,,0.00,VWS V14.01,2013-01-21 11:53:00,
2013-01-21 03:58:00,28.2,24.6,30.25,NW,305,0.0,0.0,86,0.00,,,0.00,VWS V14.01,2013-01-21 11:58:00,
2013-01-21 04:03:00,28.4,24.5,30.25,NW,305,0.0,0.0,85,0.00,,,0.00,VWS V14.01,2013-01-21 12:03:00,
2013-01-21 04:08:00,28.5,24.6,30.25,NW,305,0.0,0.0,85,0.00,,,0.00,VWS V14.01,2013-01-21 12:08:00,
2013-01-21 04:13:00,28.3,24.4,30.25,NW,305,0.0,0.0,85,0.00,,,0.00,VWS V14.01,2013-01-21 12:13:00,
2013-01-21 04:18:00,28.1,24.2,30.25,NW,305,0.0,0.0,85,0.00,,,0.00,VWS V14.01,2013-01-21 12:18:00,
2013-01-21 04:23:00,28.0,24.4,30.25,NW,305,0.0,0.0,86,0.00,,,0.00,VWS V14.01,2013-01-21 12:23:00,
2013-01-21 04:28:00,28.1,24.5,30.25,NW,304,0.0,0.0,86,0.00,,,0.00,VWS V14.01,2013-01-21 12:28:00,
2013-01-21 04:33:00,27.8,24.2,30.25,NW,305,0.0,0.0,86,0.00,,,0.00,VWS V14.01,2013-01-21 12:33:00,
2013-01-21 04:38:00,27.7,24.1,30.25,NW,305,0.0,0.0,86,0.00,,,0.00,VWS V14.01,2013-01-21 12:38:00,
2013-01-21 04:43:00,27.5,24.1,30.25,WNW,303,0.0,0.0,87,0.00,,,0.00,VWS V14.01,2013-01-21 12:43:00,
2013-01-21 04:48:00,27.4,24.0,30.25,NW,305,0.0,0.0,87,0.00,,,0.00,VWS V14.01,2013-01-21 12:48:00,
2013-01-21 04:53:00,27.5,24.1,30.24,NW,304,0.0,0.0,87,0.00,,,0.00,VWS V14.01,2013-01-21 12:53:00,
2013-01-21 04:58:00,27.5,24.1,30.24,West,267,0.0,1.0,87,0.00,,,0.00,VWS V14.01,2013-01-21 12:58:00,
2013-01-21 05:03:00,27.6,24.2,30.24,West,266,0.0,0.0,87,0.00,,,0.00,VWS V14.01,2013-01-21 13:03:00,
2013-01-21 05:08:00,27.7,24.3,30.24,West,267,0.0,0.0,87,0.00,,,0.00,VWS V14.01,2013-01-21 13:08:00,
2013-01-21 05:13:00,27.8,24.2,30.24,West,267,0.0,0.0,86,0.00,,,0.00,VWS V14.01,2013-01-21 13:13:00,
2013-01-21 05:18:00,27.8,24.2,30.24,West,266,0.0,0.0,86,0.00,,,0.00,VWS V14.01,2013-01-21 13:18:00,
2013-01-21 05:23:00,28.0,24.6,30.24,WSW,255,0.0,0.0,87,0.00,,,0.00,VWS V14.01,2013-01-21 13:23:00,
2013-01-21 05:28:00,28.0,24.4,30.24,WSW,255,0.0,0.0,86,0.00,,,0.00,VWS V14.01,2013-01-21 13:28:00,
2013-01-21 05:33:00,28.1,24.7,30.23,WSW,255,0.0,0.0,87,0.00,,,0.00,VWS V14.01,2013-01-21 13:33:00,
2013-01-21 05:38:00,28.4,25.0,30.23,WSW,255,0.0,0.0,87,0.00,,,0.00,VWS V14.01,2013-01-21 13:38:00,
2013-01-21 05:43:00,29.0,25.9,30.23,WSW,254,0.0,0.0,88,0.00,,,0.00,VWS V14.01,2013-01-21 13:43:00,
2013-01-21 05:48:00,29.4,26.3,30.23,WSW,254,0.0,0.0,88,0.00,,,0.00,VWS V14.01,2013-01-21 13:48:00,
2013-01-21 05:53:00,29.8,27.0,30.23,WSW,254,0.0,0.0,89,0.00,,,0.00,VWS V14.01,2013-01-21 13:53:00,
2013-01-21 05:58:00,30.5,28.2,30.23,WSW,245,0.0,0.0,91,0.00,,,0.00,VWS V14.01,2013-01-21 13:58:00,
2013-01-21 06:03:00,31.8,29.8,30.23,WSW,245,0.0,0.0,92,0.00,,,0.00,VWS V14.01,2013-01-21 14:03:00,
2013-01-21 06:08:00,32.8,30.5,30.24,WSW,245,0.0,0.0,91,0.00,,,0.00,VWS V14.01,2013-01-21 14:08:00,
2013-01-21 06:13:00,34.0,31.9,30.24,WSW,245,0.0,0.0,92,0.00,,,0.00,VWS V14.01,2013-01-21 14:13:00,
2013-01-21 06:18:00,34.4,31.8,30.24,WSW,245,0.0,0.0,90,0.00,,,0.00,VWS V14.01,2013-01-21 14:18:00,
2013-01-21 06:23:00,34.6,31.7,30.24,WSW,245,0.0,0.0,89,0.00,,,0.00,VWS V14.01,2013-01-21 14:23:00,
2013-01-21 06:28:00,34.6,31.7,30.24,WSW,244,0.0,0.0,89,0.00,,,0.00,VWS V14.01,2013-01-21 14:28:00,
2013-01-21 06:33:00,34.7,31.8,30.24,WSW,245,0.0,0.0,89,0.00,,,0.00,VWS V14.01,2013-01-21 14:33:00,
2013-01-21 06:38:00,35.1,32.5,30.24,WSW,245,0.0,0.0,90,0.00,,,0.00,VWS V14.01,2013-01-21 14:38:00,
2013-01-21 06:43:00,35.1,32.2,30.24,WSW,245,0.0,0.0,89,0.00,,,0.00,VWS V14.01,2013-01-21 14:43:00,
2013-01-21 06:48:00,35.2,32.3,30.24,WSW,245,0.0,0.0,89,0.00,,,0.00,VWS V14.01,2013-01-21 14:48:00,
2013-01-21 06:53:00,34.7,31.2,30.24,WSW,245,0.0,0.0,87,0.00,,,0.00,VWS V14.01,2013-01-21 14:53:00,
2013-01-21 06:58:00,34.0,30.3,30.24,WSW,245,0.0,0.0,86,0.00,,,0.00,VWS V14.01,2013-01-21 14:58:00,
2013-01-21 07:03:00,33.4,30.0,30.24,WSW,245,0.0,1.0,87,0.00,,,0.00,VWS V14.01,2013-01-21 15:03:00,
2013-01-21 07:08:00,32.8,29.4,30.25,WSW,245,0.0,1.0,87,0.00,,,0.00,VWS V14.01,2013-01-21 15:08:00,
2013-01-21 07:13:00,32.3,28.9,30.25,WSW,245,0.0,1.0,87,0.00,,,0.00,VWS V14.01,2013-01-21 15:13:00,
2013-01-21 07:18:00,31.8,28.7,30.25,WSW,245,0.0,1.0,88,0.00,,,0.00,VWS V14.01,2013-01-21 15:18:00,
2013-01-21 07:23:00,31.5,28.6,30.25,WSW,245,0.0,1.0,89,0.00,,,0.00,VWS V14.01,2013-01-21 15:23:00,
2013-01-21 07:28:00,31.3,28.4,30.25,WSW,245,0.0,1.0,89,0.00,,,0.00,VWS V14.01,2013-01-21 15:28:00,
2013-01-21 07:33:00,31.1,28.5,30.25,WSW,245,0.0,0.0,90,0.00,,,0.00,VWS V14.01,2013-01-21 15:33:00,
2013-01-21 07:38:00,30.9,28.3,30.25,WSW,245,0.0,0.0,90,0.00,,,0.00,VWS V14.01,2013-01-21 15:38:00,
2013-01-21 07:43:00,30.7,28.1,30.25,WSW,245,0.0,0.0,90,0.00,,,0.00,VWS V14.01,2013-01-21 15:43:00,
2013-01-21 07:48:00,30.5,27.9,30.26,WSW,245,0.0,0.0,90,0.00,,,0.00,VWS V14.01,2013-01-21 15:48:00,
2013-01-21 07:52:00,30.2,27.6,30.26,WSW,245,0.0,0.0,90,0.00,,,0.00,VWS V14.01,2013-01-21 15:52:00,
2013-01-21 07:57:00,30.2,27.9,30.26,WSW,245,0.0,0.0,91,0.00,,,0.00,VWS V14.01,2013-01-21 15:57:00,
2013-01-21 08:02:00,30.3,28.0,30.26,WSW,245,0.0,0.0,91,0.00,,,0.00,VWS V14.01,2013-01-21 16:02:00,
2013-01-21 08:07:00,30.7,28.9,30.26,WSW,245,0.0,0.0,93,0.00,,,0.00,VWS V14.01,2013-01-21 16:07:00,
2013-01-21 08:12:00,31.4,29.6,30.26,WSW,245,0.0,0.0,93,0.00,,,0.00,VWS V14.01,2013-01-21 16:12:00,
2013-01-21 08:17:00,32.1,30.6,30.26,WSW,245,0.0,0.0,94,0.00,,,0.00,VWS V14.01,2013-01-21 16:17:00,
2013-01-21 08:22:00,33.3,32.0,30.26,WSW,245,0.0,0.0,95,0.00,,,0.00,VWS V14.01,2013-01-21 16:22:00,
2013-01-21 08:27:00,34.1,32.8,30.26,WSW,245,0.0,0.0,95,0.00,,,0.00,VWS V14.01,2013-01-21 16:27:00,
2013-01-21 08:32:00,34.7,33.2,30.26,WSW,245,0.0,0.0,94,0.00,,,0.00,VWS V14.01,2013-01-21 16:32:00,
2013-01-21 08:37:00,35.3,33.5,30.26,WSW,245,0.0,0.0,93,0.00,,,0.00,VWS V14.01,2013-01-21 16:37:00,
2013-01-21 08:42:00,36.1,33.5,30.27,WSW,245,0.0,0.0,90,0.00,,,0.00,VWS V14.01,2013-01-21 16:42:00,
2013-01-21 08:47:00,37.2,34.0,30.27,WSW,245,0.0,0.0,88,0.00,,,0.00,VWS V14.01,2013-01-21 16:47:00,
2013-01-21 08:52:00,38.2,34.1,30.27,WSW,245,0.0,1.0,85,0.00,,,0.00,VWS V14.01,2013-01-21 16:52:00,
2013-01-21 08:57:00,39.3,34.6,30.27,WSW,248,0.0,1.0,83,0.00,,,0.00,VWS V14.01,2013-01-21 16:57:00,
2013-01-21 09:02:00,40.1,34.8,30.27,West,264,0.0,1.0,81,0.00,,,0.00,VWS V14.01,2013-01-21 17:02:00,
2013-01-21 09:07:00,40.7,35.0,30.27,West,267,0.0,1.0,80,0.00,,,0.00,VWS V14.01,2013-01-21 17:07:00,
2013-01-21 09:12:00,41.2,35.5,30.28,West,259,0.0,1.0,80,0.00,,,0.00,VWS V14.01,2013-01-21 17:12:00,
2013-01-21 09:17:00,41.8,35.8,30.28,West,278,0.0,1.0,79,0.00,,,0.00,VWS V14.01,2013-01-21 17:17:00,
2013-01-21 09:22:00,42.3,35.9,30.28,NW,305,1.0,2.0,78,0.00,,,0.00,VWS V14.01,2013-01-21 17:22:00,
2013-01-21 09:27:00,42.9,36.2,30.28,NW,311,0.0,2.0,77,0.00,,,0.00,VWS V14.01,2013-01-21 17:27:00,
2013-01-21 09:32:00,43.7,36.6,30.28,West,281,0.0,1.0,76,0.00,,,0.00,VWS V14.01,2013-01-21 17:32:00,
2013-01-21 09:37:00,44.4,37.0,30.28,NNW,341,0.0,1.0,75,0.00,,,0.00,VWS V14.01,2013-01-21 17:37:00,
2013-01-21 09:42:00,45.1,37.3,30.28,SSW,194,0.0,1.0,74,0.00,,,0.00,VWS V14.01,2013-01-21 17:42:00,
2013-01-21 09:47:00,45.9,37.4,30.28,WNW,302,0.0,1.0,72,0.00,,,0.00,VWS V14.01,2013-01-21 17:47:00,
2013-01-21 09:52:00,47.0,38.5,30.28,SSW,211,1.0,1.0,72,0.00,,,0.00,VWS V14.01,2013-01-21 17:52:00,
2013-01-21 09:57:00,48.0,38.3,30.28,West,265,1.0,2.0,69,0.00,,,0.00,VWS V14.01,2013-01-21 17:57:00,
2013-01-21 10:02:00,49.1,39.0,30.28,WNW,298,1.0,3.0,68,0.00,,,0.00,VWS V14.01,2013-01-21 18:02:00,
2013-01-21 10:07:00,49.8,39.3,30.28,WNW,291,1.0,3.0,67,0.00,,,0.00,VWS V14.01,2013-01-21 18:07:00,
2013-01-21 10:12:00,51.6,40.2,30.28,NNE,30,0.0,4.0,65,0.00,,,0.00,VWS V14.01,2013-01-21 18:12:00,
2013-01-21 10:17:00,53.2,40.1,30.28,NNW,335,1.0,4.0,61,0.00,,,0.00,VWS V14.01,2013-01-21 18:17:00,
2013-01-21 10:22:00,54.4,39.5,30.29,NE,37,2.0,4.0,57,0.00,,,0.00,VWS V14.01,2013-01-21 18:22:00,
2013-01-21 10:27:00,55.0,39.2,30.29,NNE,26,1.0,4.0,55,0.00,,,0.00,VWS V14.01,2013-01-21 18:27:00,
2013-01-21 10:32:00,55.5,39.1,30.29,ESE,118,0.0,3.0,54,0.00,,,0.00,VWS V14.01,2013-01-21 18:32:00,
2013-01-21 10:37:00,55.9,39.0,30.29,NNW,337,1.0,3.0,53,0.00,,,0.00,VWS V14.01,2013-01-21 18:37:00,
2013-01-21 10:42:00,56.3,38.4,30.29,ENE,60,0.0,5.0,51,0.00,,,0.00,VWS V14.01,2013-01-21 18:42:00,
2013-01-21 10:47:00,56.4,38.5,30.29,NNE,32,2.0,5.0,51,0.00,,,0.00,VWS V14.01,2013-01-21 18:47:00,
2013-01-21 10:52:00,56.4,38.0,30.29,ENE,71,4.0,7.0,50,0.00,,,0.00,VWS V14.01,2013-01-21 18:52:00,
2013-01-21 10:57:00,56.3,37.4,30.29,East,84,1.0,7.0,49,0.00,,,0.00,VWS V14.01,2013-01-21 18:57:00,
2013-01-21 11:02:00,56.6,37.7,30.29,East,88,3.0,4.0,49,0.00,,,0.00,VWS V14.01,2013-01-21 19:02:00,
2013-01-21 11:07:00,56.8,38.4,30.28,NNE,23,1.0,4.0,50,0.00,,,0.00,VWS V14.01,2013-01-21 19:07:00,
2013-01-21 11:12:00,57.2,38.8,30.28,NNE,18,0.0,5.0,50,0.00,,,0.00,VWS V14.01,2013-01-21 19:12:00,
2013-01-21 11:17:00,57.0,38.6,30.28,East,94,5.0,9.0,50,0.00,,,0.00,VWS V14.01,2013-01-21 19:17:00,
2013-01-21 11:22:00,57.2,39.2,30.28,NNW,330,0.0,9.0,51,0.00,,,0.00,VWS V14.01,2013-01-21 19:22:00,
2013-01-21 11:27:00,57.8,39.8,30.28,NE,46,1.0,9.0,51,0.00,,,0.00,VWS V14.01,2013-01-21 19:27:00,
2013-01-21 11:32:00,57.5,39.0,30.27,NNW,334,2.0,9.0,50,0.00,,,0.00,VWS V14.01,2013-01-21 19:32:00,
2013-01-21 11:37:00,58.1,40.1,30.27,North,6,1.0,9.0,51,0.00,,,0.00,VWS V14.01,2013-01-21 19:37:00,
2013-01-21 11:42:00,57.9,39.4,30.26,East,95,3.0,9.0,50,0.00,,,0.00,VWS V14.01,2013-01-21 19:42:00,
2013-01-21 11:47:00,58.0,40.0,30.26,ESE,116,1.0,9.0,51,0.00,,,0.00,VWS V14.01,2013-01-21 19:47:00,
2013-01-21 11:52:00,58.3,39.2,30.25,East,101,1.0,9.0,49,0.00,,,0.00,VWS V14.01,2013-01-21 19:52:00,
2013-01-21 11:57:00,58.5,39.4,30.25,East,80,2.0,9.0,49,0.00,,,0.00,VWS V14.01,2013-01-21 19:57:00,
2013-01-21 12:02:00,59.0,39.9,30.25,ESE,112,2.0,6.0,49,0.00,,,0.00,VWS V14.01,2013-01-21 20:02:00,
2013-01-21 12:07:00,59.2,40.1,30.25,North,355,2.0,6.0,49,0.00,,,0.00,VWS V14.01,2013-01-21 20:07:00,
2013-01-21 12:12:00,59.1,39.5,30.25,ENE,60,0.0,7.0,48,0.00,,,0.00,VWS V14.01,2013-01-21 20:12:00,
2013-01-21 12:17:00,59.1,40.0,30.25,NW,311,3.0,7.0,49,0.00,,,0.00,VWS V14.01,2013-01-21 20:17:00,
2013-01-21 12:22:00,59.3,40.7,30.25,NE,44,3.0,7.0,50,0.00,,,0.00,VWS V14.01,2013-01-21 20:22:00,
2013-01-21 12:27:00,59.2,40.6,30.25,South,169,2.0,7.0,50,0.00,,,0.00,VWS V14.01,2013-01-21 20:27:00,
2013-01-21 12:32:00,59.1,40.0,30.25,ENE,65,3.0,8.0,49,0.00,,,0.00,VWS V14.01,2013-01-21 20:32:00,
2013-01-21 12:37:00,59.2,40.6,30.25,North,353,2.0,8.0,50,0.00,,,0.00,VWS V14.01,2013-01-21 20:37:00,
2013-01-21 12:42:00,59.2,40.1,30.24,NE,34,2.0,8.0,49,0.00,,,0.00,VWS V14.01,2013-01-21 20:42:00,
2013-01-21 12:47:00,59.4,40.8,30.24,NE,51,6.0,8.0,50,0.00,,,0.00,VWS V14.01,2013-01-21 20:47:00,
2013-01-21 12:52:00,59.2,40.1,30.24,WNW,297,2.0,9.0,49,0.00,,,0.00,VWS V14.01,2013-01-21 20:52:00,
2013-01-21 12:57:00,59.3,40.2,30.24,NNW,330,0.0,9.0,49,0.00,,,0.00,VWS V14.01,2013-01-21 20:57:00,
2013-01-21 13:02:00,59.8,40.6,30.24,ESE,119,6.0,6.0,49,0.00,,,0.00,VWS V14.01,2013-01-21 21:02:00,
2013-01-21 13:07:00,59.6,40.4,30.23,ENE,76,5.0,8.0,49,0.00,,,0.00,VWS V14.01,2013-01-21 21:07:00,
2013-01-21 13:12:00,59.7,40.5,30.23,NNE,33,2.0,8.0,49,0.00,,,0.00,VWS V14.01,2013-01-21 21:12:00,
2013-01-21 13:17:00,59.8,40.6,30.23,East,82,3.0,8.0,49,0.00,,,0.00,VWS V14.01,2013-01-21 21:17:00,
2013-01-21 13:22:00,59.9,40.2,30.23,ESE,105,2.0,8.0,48,0.00,,,0.00,VWS V14.01,2013-01-21 21:22:00,
2013-01-21 13:27:00,60.0,40.3,30.23,NNE,31,3.0,8.0,48,0.00,,,0.00,VWS V14.01,2013-01-21 21:27:00,
2013-01-21 13:32:00,60.4,40.6,30.23,NNE,14,2.0,5.0,48,0.00,,,0.00,VWS V14.01,2013-01-21 21:32:00,
2013-01-21 13:37:00,60.6,40.3,30.23,ENE,64,8.0,8.0,47,0.00,,,0.00,VWS V14.01,2013-01-21 21:37:00,
2013-01-21 13:42:00,60.5,41.3,30.23,ENE,72,0.0,8.0,49,0.00,,,0.00,VWS V14.01,2013-01-21 21:42:00,
2013-01-21 13:47:00,60.4,40.6,30.23,East,92,1.0,8.0,48,0.00,,,0.00,VWS V14.01,2013-01-21 21:47:00,
2013-01-21 13:52:00,60.5,41.3,30.22,NW,319,2.0,8.0,49,0.00,,,0.00,VWS V14.01,2013-01-21 21:52:00,
2013-01-21 13:57:00,60.6,40.8,30.22,ENE,74,5.0,8.0,48,0.00,,,0.00,VWS V14.01,2013-01-21 21:57:00,
2013-01-21 14:02:00,60.5,41.3,30.22,ENE,72,4.0,7.0,49,0.00,,,0.00,VWS V14.01,2013-01-21 22:02:00,
2013-01-21 14:07:00,60.7,41.5,30.22,NW,326,1.0,7.0,49,0.00,,,0.00,VWS V14.01,2013-01-21 22:07:00,
2013-01-21 14:12:00,60.8,42.1,30.22,ENE,65,1.0,7.0,50,0.00,,,0.00,VWS V14.01,2013-01-21 22:12:00,
2013-01-21 14:17:00,60.3,41.1,30.22,SW,231,2.0,9.0,49,0.00,,,0.00,VWS V14.01,2013-01-21 22:17:00,
2013-01-21 14:22:00,60.4,41.7,30.22,ENE,65,3.0,9.0,50,0.00,,,0.00,VWS V14.01,2013-01-21 22:22:00,
2013-01-21 14:27:00,60.5,42.3,30.22,ENE,68,5.0,9.0,51,0.00,,,0.00,VWS V14.01,2013-01-21 22:27:00,
2013-01-21 14:32:00,60.3,41.6,30.22,NNE,15,2.0,6.0,50,0.00,,,0.00,VWS V14.01,2013-01-21 22:32:00,
2013-01-21 14:37:00,60.4,41.2,30.22,ENE,74,1.0,6.0,49,0.00,,,0.00,VWS V14.01,2013-01-21 22:37:00,
2013-01-21 14:42:00,60.6,41.4,30.22,NE,42,3.0,6.0,49,0.00,,,0.00,VWS V14.01,2013-01-21 22:42:00,
2013-01-21 14:47:00,60.3,40.5,30.22,ENE,57,4.0,7.0,48,0.00,,,0.00,VWS V14.01,2013-01-21 22:47:00,
2013-01-21 14:52:00,60.2,40.5,30.22,ENE,77,5.0,7.0,48,0.00,,,0.00,VWS V14.01,2013-01-21 22:52:00,
2013-01-21 14:57:00,60.1,40.4,30.21,WNW,297,2.0,9.0,48,0.00,,,0.00,VWS V14.01,2013-01-21 22:57:00,
2013-01-21 15:02:00,60.1,40.4,30.21,NE,49,4.0,7.0,48,0.00,,,0.00,VWS V14.01,2013-01-21 23:02:00,
2013-01-21 15:07:00,60.2,40.5,30.21,ENE,60,1.0,7.0,48,0.00,,,0.00,VWS V14.01,2013-01-21 23:07:00,
2013-01-21 15:12:00,60.2,40.5,30.22,ENE,67,2.0,7.0,48,0.00,,,0.00,VWS V14.01,2013-01-21 23:12:00,
2013-01-21 15:17:00,60.3,40.5,30.22,SSE,149,2.0,7.0,48,0.00,,,0.00,VWS V14.01,2013-01-21 23:17:00,
2013-01-21 15:22:00,60.0,40.3,30.22,ENE,60,2.0,7.0,48,0.00,,,0.00,VWS V14.01,2013-01-21 23:22:00,
2013-01-21 15:27:00,60.1,39.8,30.22,ESE,105,0.0,7.0,47,0.00,,,0.00,VWS V14.01,2013-01-21 23:27:00,
2013-01-21 15:32:00,60.2,39.4,30.22,ENE,65,0.0,5.0,46,0.00,,,0.00,VWS V14.01,2013-01-21 23:32:00,
2013-01-21 15:37:00,60.2,38.8,30.22,ENE,65,1.0,5.0,45,0.00,,,0.00,VWS V14.01,2013-01-21 23:37:00,
2013-01-21 15:42:00,60.3,38.3,30.22,NNW,336,1.0,5.0,44,0.00,,,0.00,VWS V14.01,2013-01-21 23:42:00,
2013-01-21 15:47:00,60.4,37.2,30.21,WNW,290,1.0,5.0,42,0.00,,,0.00,VWS V14.01,2013-01-21 23:47:00,
2013-01-21 15:52:00,60.4,36.6,30.21,WSW,246,0.0,5.0,41,0.00,,,0.00,VWS V14.01,2013-01-21 23:52:00,
2013-01-21 15:57:00,60.5,34.8,30.21,SE,126,0.0,5.0,38,0.00,,,0.00,VWS V14.01,2013-01-21 23:57:00,
2013-01-21 16:02:00,60.4,33.3,30.20,ENE,63,0.0,1.0,36,0.00,,,0.00,VWS V14.01,2013-01-22 00:02:00,
2013-01-21 16:07:00,60.4,33.3,30.20,SSW,201,0.0,1.0,36,0.00,,,0.00,VWS V14.01,2013-01-22 00:07:00,
2013-01-21 16:12:00,60.3,35.3,30.20,SSE,148,0.0,1.0,39,0.00,,,0.00,VWS V14.01,2013-01-22 00:12:00,
2013-01-21 16:17:00,60.6,38.0,30.20,ESE,110,0.0,2.0,43,0.00,,,0.00,VWS V14.01,2013-01-22 00:17:00,
2013-01-21 16:22:00,60.2,39.4,30.20,ESE,105,0.0,2.0,46,0.00,,,0.00,VWS V14.01,2013-01-22 00:22:00,
2013-01-21 16:27:00,59.7,37.8,30.20,East,89,1.0,2.0,44,0.00,,,0.00,VWS V14.01,2013-01-22 00:27:00,
2013-01-21 16:32:00,59.1,38.4,30.20,East,86,0.0,3.0,46,0.00,,,0.00,VWS V14.01,2013-01-22 00:32:00,
2013-01-21 16:37:00,58.7,36.9,30.20,SSE,159,0.0,3.0,44,0.00,,,0.00,VWS V14.01,2013-01-22 00:37:00,
2013-01-21 16:42:00,58.3,35.3,30.20,East,88,0.0,3.0,42,0.00,,,0.00,VWS V14.01,2013-01-22 00:42:00,
2013-01-21 16:47:00,57.7,33.6,30.20,SSE,167,0.0,3.0,40,0.00,,,0.00,VWS V14.01,2013-01-22 00:47:00,
2013-01-21 16:52:00,57.1,31.8,30.20,ESE,110,0.0,3.0,38,0.00,,,0.00,VWS V14.01,2013-01-22 00:52:00,
2013-01-21 16:57:00,56.6,31.3,30.20,ESE,115,0.0,3.0,38,0.00,,,0.00,VWS V14.01,2013-01-22 00:57:00,
2013-01-21 17:02:00,55.9,30.7,30.20,SE,124,0.0,1.0,38,0.00,,,0.00,VWS V14.01,2013-01-22 01:02:00,
2013-01-21 17:07:00,55.3,29.5,30.20,SE,124,0.0,1.0,37,0.00,,,0.00,VWS V14.01,2013-01-22 01:07:00,
2013-01-21 17:12:00,54.6,28.9,30.19,SE,124,0.0,1.0,37,0.00,,,0.00,VWS V14.01,2013-01-22 01:12:00,
2013-01-21 17:17:00,53.9,28.9,30.19,SE,124,0.0,1.0,38,0.00,,,0.00,VWS V14.01,2013-01-22 01:17:00,
2013-01-21 17:22:00,53.1,27.5,30.19,SE,124,0.0,1.0,37,0.00,,,0.00,VWS V14.01,2013-01-22 01:22:00,
2013-01-21 17:27:00,52.6,27.1,30.19,SE,125,0.0,1.0,37,0.00,,,0.00,VWS V14.01,2013-01-22 01:27:00,
2013-01-21 17:32:00,52.2,26.7,30.20,North,356,0.0,1.0,37,0.00,,,0.00,VWS V14.01,2013-01-22 01:32:00,
2013-01-21 17:37:00,52.2,26.1,30.19,SE,145,0.0,1.0,36,0.00,,,0.00,VWS V14.01,2013-01-22 01:37:00,
2013-01-21 17:42:00,52.5,26.3,30.20,ENE,57,0.0,2.0,36,0.00,,,0.00,VWS V14.01,2013-01-22 01:42:00,
2013-01-21 17:47:00,52.8,26.6,30.19,SE,128,0.0,3.0,36,0.00,,,0.00,VWS V14.01,2013-01-22 01:47:00,
2013-01-21 17:52:00,52.8,26.6,30.19,NE,37,0.0,3.0,36,0.00,,,0.00,VWS V14.01,2013-01-22 01:52:00,
2013-01-21 17:57:00,52.9,26.7,30.19,ESE,122,0.0,3.0,36,0.00,,,0.00,VWS V14.01,2013-01-22 01:57:00,
2013-01-21 18:02:00,52.6,27.1,30.19,ESE,123,0.0,1.0,37,0.00,,,0.00,VWS V14.01,2013-01-22 02:02:00,
2013-01-21 18:07:00,52.0,27.8,30.19,SSW,203,0.0,1.0,39,0.00,,,0.00,VWS V14.01,2013-01-22 02:07:00,
2013-01-21 18:12:00,51.1,28.8,30.20,SSW,203,0.0,1.0,42,0.00,,,0.00,VWS V14.01,2013-01-22 02:12:00,
2013-01-21 18:17:00,50.2,29.1,30.20,SSW,203,0.0,1.0,44,0.00,,,0.00,VWS V14.01,2013-01-22 02:17:00,
2013-01-21 18:22:00,49.4,29.5,30.20,SSW,203,0.0,1.0,46,0.00,,,0.00,VWS V14.01,2013-01-22 02:22:00,
2013-01-21 18:27:00,48.7,29.9,30.20,SSW,203,0.0,1.0,48,0.00,,,0.00,VWS V14.01,2013-01-22 02:27:00,
2013-01-21 18:32:00,47.8,30.1,30.20,SSW,203,0.0,0.0,50,0.00,,,0.00,VWS V14.01,2013-01-22 02:32:00,
2013-01-21 18:37:00,47.0,29.8,30.20,SSW,203,0.0,0.0,51,0.00,,,0.00,VWS V14.01,2013-01-22 02:37:00,
2013-01-21 18:42:00,46.3,30.1,30.20,SSW,203,0.0,0.0,53,0.00,,,0.00,VWS V14.01,2013-01-22 02:42:00,
2013-01-21 18:47:00,45.9,30.7,30.20,SSW,202,0.0,0.0,55,0.00,,,0.00,VWS V14.01,2013-01-22 02:47:00,
2013-01-21 18:52:00,45.6,31.3,30.20,SE,127,0.0,1.0,57,0.00,,,0.00,VWS V14.01,2013-01-22 02:52:00,
2013-01-21 18:57:00,45.3,31.8,30.20,SE,127,0.0,1.0,59,0.00,,,0.00,VWS V14.01,2013-01-22 02:57:00,
2013-01-21 19:02:00,45.0,32.0,30.20,SE,127,0.0,1.0,60,0.00,,,0.00,VWS V14.01,2013-01-22 03:02:00,
2013-01-21 19:07:00,44.6,32.0,30.20,SE,127,0.0,1.0,61,0.00,,,0.00,VWS V14.01,2013-01-22 03:07:00,
2013-01-21 19:12:00,44.3,31.7,30.20,SE,127,0.0,1.0,61,0.00,,,0.00,VWS V14.01,2013-01-22 03:12:00,
2013-01-21 19:17:00,44.0,31.4,30.20,SE,127,0.0,1.0,61,0.00,,,0.00,VWS V14.01,2013-01-22 03:17:00,
2013-01-21 19:22:00,43.5,31.4,30.21,SE,127,0.0,1.0,62,0.00,,,0.00,VWS V14.01,2013-01-22 03:22:00,
2013-01-21 19:27:00,43.1,30.2,30.21,SE,127,0.0,1.0,60,0.00,,,0.00,VWS V14.01,2013-01-22 03:27:00,
2013-01-21 19:32:00,42.6,30.9,30.21,SE,127,0.0,0.0,63,0.00,,,0.00,VWS V14.01,2013-01-22 03:32:00,
2013-01-21 19:37:00,42.2,30.5,30.20,SE,127,0.0,0.0,63,0.00,,,0.00,VWS V14.01,2013-01-22 03:37:00,
2013-01-21 19:42:00,41.6,30.3,30.20,SE,127,0.0,0.0,64,0.00,,,0.00,VWS V14.01,2013-01-22 03:42:00,
2013-01-21 19:47:00,41.1,29.9,30.21,SE,127,0.0,0.0,64,0.00,,,0.00,VWS V14.01,2013-01-22 03:47:00,
2013-01-21 19:52:00,40.7,29.9,30.21,SE,127,0.0,0.0,65,0.00,,,0.00,VWS V14.01,2013-01-22 03:52:00,
2013-01-21 19:57:00,40.6,30.5,30.21,SE,127,0.0,0.0,67,0.00,,,0.00,VWS V14.01,2013-01-22 03:57:00,
2013-01-21 20:02:00,40.2,30.9,30.21,SE,127,0.0,0.0,69,0.00,,,0.00,VWS V14.01,2013-01-22 04:02:00,
2013-01-21 20:07:00,39.9,30.9,30.21,SE,127,0.0,0.0,70,0.00,,,0.00,VWS V14.01,2013-01-22 04:07:00,
2013-01-21 20:12:00,39.8,30.8,30.22,SE,127,0.0,0.0,70,0.00,,,0.00,VWS V14.01,2013-01-22 04:12:00,
2013-01-21 20:17:00,39.4,30.8,30.22,SE,127,0.0,0.0,71,0.00,,,0.00,VWS V14.01,2013-01-22 04:17:00,
2013-01-21 20:22:00,39.1,30.9,30.21,SE,127,0.0,0.0,72,0.00,,,0.00,VWS V14.01,2013-01-22 04:22:00,
2013-01-21 20:27:00,39.0,30.8,30.22,SE,127,0.0,0.0,72,0.00,,,0.00,VWS V14.01,2013-01-22 04:27:00,
2013-01-21 20:32:00,38.7,30.5,30.22,SE,127,0.0,0.0,72,0.00,,,0.00,VWS V14.01,2013-01-22 04:32:00,
2013-01-21 20:37:00,38.3,30.4,30.22,SE,127,0.0,0.0,73,0.00,,,0.00,VWS V14.01,2013-01-22 04:37:00,
2013-01-21 20:42:00,38.1,30.2,30.22,SE,127,0.0,0.0,73,0.00,,,0.00,VWS V14.01,2013-01-22 04:42:00,
2013-01-21 20:47:00,38.2,30.0,30.22,SE,127,0.0,0.0,72,0.00,,,0.00,VWS V14.01,2013-01-22 04:47:00,
2013-01-21 20:52:00,38.5,30.6,30.22,SE,127,0.0,0.0,73,0.00,,,0.00,VWS V14.01,2013-01-22 04:52:00,
2013-01-21 20:57:00,38.6,30.0,30.22,SE,127,0.0,0.0,71,0.00,,,0.00,VWS V14.01,2013-01-22 04:57:00,
2013-01-21 21:00:00,38.6,30.0,30.22,SE,127,0.0,0.0,71,0.00,,,0.00,VWS V14.01,2013-01-22 05:00:00,
2013-01-21 21:06:00,38.4,29.8,30.22,SE,127,0.0,0.0,71,0.00,,,0.00,VWS V14.01,2013-01-22 05:06:00,
2013-01-21 21:11:00,38.3,29.7,30.23,SE,127,0.0,0.0,71,0.00,,,0.00,VWS V14.01,2013-01-22 05:11:00,
2013-01-21 21:16:00,38.1,29.9,30.23,SE,127,0.0,0.0,72,0.00,,,0.00,VWS V14.01,2013-01-22 05:16:00,
2013-01-21 21:21:00,37.9,29.7,30.23,SE,127,0.0,0.0,72,0.00,,,0.00,VWS V14.01,2013-01-22 05:21:00,
2013-01-21 21:26:00,37.8,29.6,30.23,SE,127,0.0,0.0,72,0.00,,,0.00,VWS V14.01,2013-01-22 05:26:00,
2013-01-21 21:31:00,37.9,29.7,30.23,SE,127,0.0,0.0,72,0.00,,,0.00,VWS V14.01,2013-01-22 05:31:00,
2013-01-21 21:36:00,38.2,29.6,30.23,SE,127,0.0,0.0,71,0.00,,,0.00,VWS V14.01,2013-01-22 05:36:00,
2013-01-21 21:41:00,38.1,29.5,30.23,SE,127,0.0,0.0,71,0.00,,,0.00,VWS V14.01,2013-01-22 05:41:00,
2013-01-21 21:46:00,37.7,29.8,30.23,SE,127,0.0,0.0,73,0.00,,,0.00,VWS V14.01,2013-01-22 05:46:00,
2013-01-21 21:51:00,37.5,29.6,30.23,SE,127,0.0,0.0,73,0.00,,,0.00,VWS V14.01,2013-01-22 05:51:00,
2013-01-21 21:56:00,37.3,29.5,30.23,SE,127,0.0,0.0,73,0.00,,,0.00,VWS V14.01,2013-01-22 05:56:00,
2013-01-21 22:01:00,37.1,29.3,30.23,SE,127,0.0,0.0,73,0.00,,,0.00,VWS V14.01,2013-01-22 06:01:00,
2013-01-21 22:06:00,36.6,28.8,30.23,SE,127,0.0,0.0,73,0.00,,,0.00,VWS V14.01,2013-01-22 06:06:00,
2013-01-21 22:11:00,36.3,29.1,30.24,SE,127,0.0,0.0,75,0.00,,,0.00,VWS V14.01,2013-01-22 06:11:00,
2013-01-21 22:16:00,36.1,28.6,30.24,SE,127,0.0,0.0,74,0.00,,,0.00,VWS V14.01,2013-01-22 06:16:00,
2013-01-21 22:21:00,35.9,28.8,30.24,SE,127,0.0,0.0,75,0.00,,,0.00,VWS V14.01,2013-01-22 06:21:00,
2013-01-21 22:26:00,36.0,29.2,30.24,SE,127,0.0,0.0,76,0.00,,,0.00,VWS V14.01,2013-01-22 06:26:00,
2013-01-21 22:31:00,35.9,29.1,30.24,SE,127,0.0,0.0,76,0.00,,,0.00,VWS V14.01,2013-01-22 06:31:00,
2013-01-21 22:36:00,35.7,29.2,30.24,SE,127,0.0,0.0,77,0.00,,,0.00,VWS V14.01,2013-01-22 06:36:00,
2013-01-21 22:40:00,35.6,29.1,30.24,SE,127,0.0,0.0,77,0.00,,,0.00,VWS V14.01,2013-01-22 06:40:00,
2013-01-21 22:45:00,35.6,29.4,30.24,SE,129,0.0,0.0,78,0.00,,,0.00,VWS V14.01,2013-01-22 06:45:00,
2013-01-21 22:50:00,35.4,29.2,30.24,SE,129,0.0,0.0,78,0.00,,,0.00,VWS V14.01,2013-01-22 06:50:00,
2013-01-21 22:55:00,35.4,29.5,30.24,SE,129,0.0,0.0,79,0.00,,,0.00,VWS V14.01,2013-01-22 06:55:00,
2013-01-21 23:00:00,35.5,29.6,30.24,SE,129,0.0,0.0,79,0.00,,,0.00,VWS V14.01,2013-01-22 07:00:00,
2013-01-21 23:05:00,35.5,29.3,30.24,SE,129,0.0,0.0,78,0.00,,,0.00,VWS V14.01,2013-01-22 07:05:00,
2013-01-21 23:10:00,35.2,29.0,30.24,SE,129,0.0,0.0,78,0.00,,,0.00,VWS V14.01,2013-01-22 07:10:00,
2013-01-21 23:15:00,35.2,29.4,30.24,SE,129,0.0,0.0,79,0.00,,,0.00,VWS V14.01,2013-01-22 07:15:00,
2013-01-21 23:20:00,35.1,29.6,30.24,SE,129,0.0,0.0,80,0.00,,,0.00,VWS V14.01,2013-01-22 07:20:00,
2013-01-21 23:25:00,34.9,29.4,30.24,SE,129,0.0,0.0,80,0.00,,,0.00,VWS V14.01,2013-01-22 07:25:00,
2013-01-21 23:30:00,34.8,29.3,30.24,SE,129,0.0,0.0,80,0.00,,,0.00,VWS V14.01,2013-01-22 07:30:00,
2013-01-21 23:35:00,35.0,29.8,30.23,SE,129,0.0,0.0,81,0.00,,,0.00,VWS V14.01,2013-01-22 07:35:00,
2013-01-21 23:40:00,35.1,29.6,30.23,SE,129,0.0,0.0,80,0.00,,,0.00,VWS V14.01,2013-01-22 07:40:00,
2013-01-21 23:45:00,35.0,29.5,30.23,SE,129,0.0,0.0,80,0.00,,,0.00,VWS V14.01,2013-01-22 07:45:00,
2013-01-21 23:50:00,34.9,29.4,30.23,SE,129,0.0,0.0,80,0.00,,,0.00,VWS V14.01,2013-01-22 07:50:00,
2013-01-21 23:55:00,34.9,29.7,30.23,SE,129,0.0,0.0,81,0.00,,,0.00,VWS V14.01,2013-01-22 07:55:00,